Portada
METAR-TAF:

METAR-TAF

Aeroports :

Leticia, Colòmbia

latitud: 04-10S, longitud: 069-57W, altitud: 84 m

Observació

L'informe es va fer fa 19 minuts, a les 19:00 UTC
Vent 4 kt del Oest
Temperatura 29°C
Humitat 89%
Pressió 1008 hPa
Visibilitat 10 km o més
Cel ennuvolat a una alçada de 1700 ft
Núvols disperses a una alçada de 20000 ft

METAR: SKLT 151900Z 27004KT 9999 BKN017 SCT200 29/27 A2978

Hora: 14:19 (19:19 UTC)

Pronòstic

L'informe es va fer fa 2 hores i 49 minuts, a les 16:30 UTC
Pronòstic vàlid del 15 a les 18 UTC al 16 a les 18 UTC
Vent 3 kt amb direcció variable
Visibilitat 10 km o més
Cel ennuvolat a una alçada de 1500 ft
Temporalment
l' 15 a les 19 UTC al 15 a les 23 UTC
Visibilitat: 4000 m
Núvols disperses a una alçada de 1500 ft, Cumulonimbus.
Núvols disperses a una alçada de 1700 ft
tempesta, pluja

TAF: SKLT 151630Z 1518/1618 VRB03KT 9999 BKN015 TEMPO 1519/1523 4000 TSRA SCT015CB SCT017 TX33/1518Z TN22/1610Z

Observacions i pronòstics meteorològics de més de 4000 aeroports (METAR i TAF).

Les estacions disponibles són els punts grocs i vermells al mapa.

Posi el ratolí al punt desitjat per veure el nom de l'estació.

Feu clic per veure les observacions i els pronòstics meteorològics.

Per canviar el mapa: feu clic els botons verds amb una creu de color negre per apropar; al botó verd amb un guió per allunyar la imatge; o en les fletxes verdes per a mapes adjacents.


METAR-TAF: